Time;durP1;ratioP1;P1;durP2;ratioP2;P2;SDS_P1;SDS_P2;PMS_P1;PMS_P2;Temp;Humidity;BMP_temperature;BMP_pressure;BME280_temperature;BME280_humidity;BME280_pressure;Samples;Min_cycle;Max_cycle;Signal;HPM_P1;HPM_P2
2021/01/14 00:01:18;;;;;;;18.25;17.02;;;1.50;85.50;;;;;;5163218;28;20038;-77
2021/01/14 00:03:49;;;;;;;18.30;17.00;;;1.50;85.50;;;;;;5162710;28;20125;-77
2021/01/14 00:06:21;;;;;;;17.90;16.70;;;1.50;85.60;;;;;;5168089;28;20066;-77
2021/01/14 00:08:52;;;;;;;18.02;16.83;;;1.50;85.30;;;;;;5163317;28;20064;-77
2021/01/14 00:11:24;;;;;;;18.52;17.23;;;1.50;84.90;;;;;;5162726;28;20096;-77
2021/01/14 00:13:56;;;;;;;18.10;16.90;;;1.50;85.50;;;;;;5159790;28;20054;-77
2021/01/14 00:16:27;;;;;;;17.88;16.67;;;1.50;85.90;;;;;;5162076;28;20050;-76
2021/01/14 00:18:59;;;;;;;17.55;16.35;;;1.40;86.00;;;;;;5161709;28;20508;-77
2021/01/14 00:21:31;;;;;;;18.33;17.05;;;1.40;85.90;;;;;;5164550;28;20050;-77
2021/01/14 00:24:03;;;;;;;17.95;16.75;;;1.40;86.30;;;;;;5162494;28;20444;-77
2021/01/14 00:26:34;;;;;;;18.00;16.80;;;1.40;85.80;;;;;;5160242;28;20181;-77
2021/01/14 00:29:09;;;;;;;18.60;17.30;;;1.50;85.70;;;;;;5143923;28;20046;-78
2021/01/14 00:31:41;;;;;;;18.33;17.05;;;1.50;85.70;;;;;;5160001;28;20147;-77
2021/01/14 00:34:14;;;;;;;18.17;16.98;;;1.50;86.00;;;;;;5158077;28;20613;-77
2021/01/14 00:39:36;;;;;;;17.85;16.65;;;1.50;85.90;;;;;;5158139;28;20103;-78
2021/01/14 00:42:07;;;;;;;17.63;16.42;;;1.50;86.10;;;;;;5147306;28;20049;-77
2021/01/14 00:44:38;;;;;;;17.70;16.50;;;1.50;86.00;;;;;;5165460;28;20092;-78
2021/01/14 00:47:10;;;;;;;17.70;16.50;;;1.50;86.10;;;;;;5161974;28;20042;-77
2021/01/14 00:49:41;;;;;;;18.08;16.88;;;1.50;85.80;;;;;;5161873;28;20162;-78
2021/01/14 00:52:13;;;;;;;18.20;17.00;;;1.50;86.20;;;;;;5163218;28;20054;-78
2021/01/14 00:54:44;;;;;;;18.08;16.88;;;1.50;86.40;;;;;;5143097;28;20136;-78
2021/01/14 00:57:16;;;;;;;18.48;17.25;;;1.50;86.30;;;;;;5158884;28;20090;-78
2021/01/14 00:59:47;;;;;;;18.52;17.23;;;1.60;86.20;;;;;;5159170;28;20056;-77
2021/01/14 01:02:19;;;;;;;18.42;17.20;;;1.50;86.20;;;;;;5156462;28;20084;-79
2021/01/14 01:04:50;;;;;;;18.65;17.35;;;1.50;85.90;;;;;;5162264;28;20057;-78
2021/01/14 01:07:22;;;;;;;18.80;17.50;;;1.50;86.00;;;;;;5159308;28;20056;-77
2021/01/14 01:09:53;;;;;;;19.13;17.83;;;1.50;86.00;;;;;;5161910;28;20050;-77
2021/01/14 01:12:24;;;;;;;18.95;17.65;;;1.60;86.20;;;;;;5158341;28;20042;-77
2021/01/14 01:14:56;;;;;;;18.88;17.58;;;1.60;85.50;;;;;;5159461;28;20042;-74
2021/01/14 01:17:32;;;;;;;18.45;17.15;;;1.60;86.20;;;;;;5159196;28;20070;-75
2021/01/14 01:20:04;;;;;;;18.42;17.13;;;1.60;86.30;;;;;;5160556;28;20074;-76
2021/01/14 01:22:35;;;;;;;18.88;17.58;;;1.50;87.00;;;;;;5161497;28;20041;-74
2021/01/14 01:25:07;;;;;;;19.00;17.70;;;1.60;87.50;;;;;;5159706;28;20131;-75
2021/01/14 01:27:39;;;;;;;18.77;17.48;;;1.60;87.10;;;;;;5146602;28;20464;-76
2021/01/14 01:30:11;;;;;;;18.77;17.48;;;1.60;86.80;;;;;;5159150;28;20046;-76
2021/01/14 01:32:43;;;;;;;18.73;17.42;;;1.60;86.80;;;;;;5146641;28;20535;-77
2021/01/14 01:35:14;;;;;;;18.60;17.30;;;1.60;86.50;;;;;;5157223;28;20559;-76
2021/01/14 01:37:46;;;;;;;19.20;17.90;;;1.60;86.80;;;;;;5161894;28;20040;-75
2021/01/14 01:40:17;;;;;;;18.83;17.52;;;1.70;86.40;;;;;;5157104;28;20051;-75
2021/01/14 01:42:55;;;;;;;18.90;17.60;;;1.70;86.80;;;;;;5160244;28;20393;-76
2021/01/14 01:45:27;;;;;;;19.17;17.88;;;1.70;86.40;;;;;;5163312;28;20046;-75
2021/01/14 01:47:58;;;;;;;18.95;17.65;;;1.70;86.00;;;;;;5157760;28;20042;-75
2021/01/14 01:50:31;;;;;;;18.92;17.63;;;1.80;86.00;;;;;;5161938;28;20145;-75
2021/01/14 01:53:02;;;;;;;19.15;17.85;;;1.80;86.20;;;;;;5162816;28;20119;-76
2021/01/14 01:55:34;;;;;;;18.95;17.65;;;1.80;86.10;;;;;;5153192;28;20049;-76
2021/01/14 01:58:06;;;;;;;18.45;17.15;;;1.80;86.20;;;;;;5164440;28;20077;-75
2021/01/14 02:00:38;;;;;;;19.13;17.63;;;1.80;86.30;;;;;;5163009;28;20042;-75
2021/01/14 02:03:10;;;;;;;18.75;17.45;;;1.80;85.70;;;;;;5160786;28;20034;-75
2021/01/14 02:05:41;;;;;;;18.75;17.45;;;1.80;86.00;;;;;;5150570;28;20152;-76
2021/01/14 02:08:30;;;;;;;18.60;17.30;;;1.80;85.80;;;;;;5161175;28;20070;-75
2021/01/14 02:11:29;;;;;;;18.53;17.23;;;1.80;85.70;;;;;;5165297;28;20736;-76
2021/01/14 02:14:24;;;;;;;18.85;17.55;;;1.90;85.40;;;;;;5164171;28;20536;-76
2021/01/14 02:16:55;;;;;;;18.83;17.52;;;1.80;85.10;;;;;;5164846;28;20391;-75
2021/01/14 02:19:39;;;;;;;18.90;17.60;;;1.70;86.00;;;;;;5165048;28;20068;-75
2021/01/14 02:22:20;;;;;;;19.20;17.90;;;1.70;86.20;;;;;;5148236;28;20134;-76
2021/01/14 02:25:12;;;;;;;18.50;17.20;;;1.70;86.20;;;;;;5168816;28;20049;-77
2021/01/14 02:27:46;;;;;;;19.17;17.88;;;1.80;85.90;;;;;;5165925;28;20116;-75
2021/01/14 02:30:18;;;;;;;18.92;17.63;;;1.80;85.70;;;;;;5166814;28;20046;-77
2021/01/14 02:32:49;;;;;;;18.85;17.55;;;1.70;86.00;;;;;;5163022;28;20045;-76
2021/01/14 02:35:21;;;;;;;18.90;17.60;;;1.80;86.00;;;;;;5161322;28;20511;-75
2021/01/14 02:37:52;;;;;;;19.20;17.90;;;1.80;85.80;;;;;;5165894;28;20495;-75
2021/01/14 02:40:24;;;;;;;18.65;17.35;;;1.80;85.70;;;;;;5145176;28;20638;-75
2021/01/14 02:42:55;;;;;;;18.75;17.45;;;1.80;85.60;;;;;;5168638;28;20197;-76
2021/01/14 02:45:27;;;;;;;19.48;18.15;;;1.80;85.90;;;;;;5154763;28;20682;-75
2021/01/14 02:48:00;;;;;;;19.52;18.13;;;1.80;85.60;;;;;;5164931;28;20384;-75
2021/01/14 02:50:37;;;;;;;18.90;17.60;;;1.80;86.10;;;;;;5163294;28;20385;-76
2021/01/14 02:53:13;;;;;;;19.35;17.85;;;1.80;86.20;;;;;;5162409;28;20678;-77
2021/01/14 02:55:46;;;;;;;18.88;17.58;;;1.80;87.00;;;;;;5162262;28;20052;-75
2021/01/14 02:58:17;;;;;;;18.58;17.27;;;1.80;86.00;;;;;;5160452;28;20050;-78
2021/01/14 03:00:49;;;;;;;18.63;17.42;;;1.90;85.80;;;;;;5160810;28;20050;-78
2021/01/14 03:03:20;;;;;;;18.30;17.10;;;1.80;86.00;;;;;;5163082;28;20149;-78
2021/01/14 03:05:51;;;;;;;18.73;17.42;;;1.90;86.20;;;;;;5160049;28;20050;-77
2021/01/14 03:08:23;;;;;;;18.92;17.63;;;1.90;86.20;;;;;;5163925;28;20129;-75
2021/01/14 03:10:54;;;;;;;19.08;17.67;;;1.90;86.10;;;;;;5161910;28;20115;-76
2021/01/14 03:13:26;;;;;;;18.90;17.60;;;1.90;86.00;;;;;;5163700;28;20089;-76
2021/01/14 03:15:59;;;;;;;18.73;17.42;;;1.90;85.70;;;;;;5163558;28;20097;-75
2021/01/14 03:18:30;;;;;;;18.98;17.67;;;1.90;85.90;;;;;;5163876;28;20436;-75
2021/01/14 03:21:01;;;;;;;18.25;17.05;;;1.90;85.80;;;;;;5161288;28;20054;-77
2021/01/14 03:23:33;;;;;;;18.88;17.58;;;1.90;85.80;;;;;;5162692;28;20585;-75
2021/01/14 03:26:04;;;;;;;18.27;16.98;;;1.90;85.80;;;;;;5168946;28;20047;-76
2021/01/14 03:28:36;;;;;;;18.08;16.88;;;1.80;85.70;;;;;;5158539;28;20049;-77
2021/01/14 03:31:09;;;;;;;18.42;17.13;;;1.80;85.50;;;;;;5161904;28;20049;-75
2021/01/14 03:33:42;;;;;;;18.38;17.08;;;1.80;85.60;;;;;;5164341;28;20052;-75
2021/01/14 03:36:17;;;;;;;17.88;16.67;;;1.80;85.50;;;;;;5159273;28;20152;-75
2021/01/14 03:38:48;;;;;;;18.00;16.80;;;1.80;85.50;;;;;;5163016;28;20093;-77
2021/01/14 03:41:20;;;;;;;18.42;17.17;;;1.80;85.40;;;;;;5164795;28;20045;-75
2021/01/14 03:43:51;;;;;;;18.27;17.05;;;1.70;85.40;;;;;;5147486;28;20050;-77
2021/01/14 03:46:23;;;;;;;18.30;17.10;;;1.70;85.40;;;;;;5159866;28;20065;-75
2021/01/14 03:48:54;;;;;;;18.17;16.98;;;1.60;85.30;;;;;;5160982;28;20148;-76
2021/01/14 03:51:25;;;;;;;18.00;16.80;;;1.60;85.40;;;;;;5162348;28;20054;-76
2021/01/14 03:53:57;;;;;;;17.98;16.77;;;1.60;85.30;;;;;;5163543;28;20454;-77
2021/01/14 03:56:28;;;;;;;17.83;16.63;;;1.60;85.40;;;;;;5161668;28;20057;-76
2021/01/14 03:59:00;;;;;;;17.67;16.48;;;1.50;85.50;;;;;;5160672;28;20045;-77
2021/01/14 04:01:35;;;;;;;18.50;17.20;;;1.50;85.70;;;;;;5162287;28;20188;-76
2021/01/14 04:04:06;;;;;;;18.30;16.90;;;1.40;85.80;;;;;;5158545;28;20110;-73
2021/01/14 04:06:38;;;;;;;18.10;16.80;;;1.40;85.80;;;;;;5146965;28;20081;-74
2021/01/14 04:09:09;;;;;;;18.65;17.35;;;1.40;85.80;;;;;;5157107;28;20042;-76
2021/01/14 04:11:41;;;;;;;18.50;17.20;;;1.40;86.10;;;;;;5164067;28;20388;-76
2021/01/14 04:14:12;;;;;;;17.75;16.55;;;1.40;86.10;;;;;;5156726;28;20034;-75
2021/01/14 04:16:47;;;;;;;18.30;17.00;;;1.30;86.10;;;;;;5160718;28;20056;-75
2021/01/14 04:19:19;;;;;;;18.55;17.25;;;1.40;86.10;;;;;;5165321;28;20073;-76
2021/01/14 04:21:50;;;;;;;18.35;17.05;;;1.30;86.00;;;;;;5162377;28;20057;-75
2021/01/14 04:24:22;;;;;;;18.25;17.02;;;1.30;86.00;;;;;;5162642;28;20132;-77
2021/01/14 04:26:53;;;;;;;17.52;16.33;;;1.30;86.10;;;;;;5141233;28;20692;-76
2021/01/14 04:29:25;;;;;;;18.30;17.00;;;1.30;86.20;;;;;;5161562;28;20046;-76
2021/01/14 04:31:56;;;;;;;17.73;16.52;;;1.30;86.20;;;;;;5160228;28;20046;-76
2021/01/14 04:34:28;;;;;;;18.08;16.88;;;1.30;86.10;;;;;;5160996;28;20547;-77
2021/01/14 04:37:01;;;;;;;17.70;16.50;;;1.30;86.10;;;;;;5158363;28;20050;-75
2021/01/14 04:39:33;;;;;;;18.45;17.20;;;1.20;86.00;;;;;;5162500;28;20821;-78
2021/01/14 04:42:09;;;;;;;18.30;17.00;;;1.20;86.10;;;;;;5158920;28;20508;-78
2021/01/14 04:44:40;;;;;;;17.65;16.45;;;1.20;86.20;;;;;;5159829;28;20046;-76
2021/01/14 04:47:14;;;;;;;17.95;16.65;;;1.20;86.20;;;;;;5145363;28;20050;-75
2021/01/14 04:49:46;;;;;;;18.00;16.80;;;1.20;86.30;;;;;;5158426;28;20045;-77
2021/01/14 04:52:18;;;;;;;18.27;16.98;;;1.20;86.30;;;;;;5160452;28;20463;-76
2021/01/14 04:54:52;;;;;;;18.00;16.70;;;1.20;86.10;;;;;;5161863;28;20046;-78
2021/01/14 04:57:29;;;;;;;18.35;17.05;;;1.20;86.20;;;;;;5160639;28;20094;-75
2021/01/14 05:00:02;;;;;;;18.33;17.02;;;1.20;86.30;;;;;;5143358;28;20045;-76
2021/01/14 05:02:49;;;;;;;17.75;16.55;;;1.20;86.20;;;;;;5144226;28;20715;-77
2021/01/14 05:05:23;;;;;;;18.40;17.17;;;1.20;85.50;;;;;;5158595;28;20050;-75
2021/01/14 05:08:06;;;;;;;17.85;16.65;;;1.10;85.10;;;;;;5157155;28;20073;-75
2021/01/14 05:10:38;;;;;;;18.70;17.30;;;1.10;85.60;;;;;;5157657;28;20042;-78
2021/01/14 05:13:10;;;;;;;18.55;17.25;;;1.00;85.40;;;;;;5161668;28;20735;-76
2021/01/14 05:15:42;;;;;;;18.15;16.88;;;1.00;84.90;;;;;;5161213;28;20751;-75
2021/01/14 05:18:14;;;;;;;18.00;16.73;;;0.90;85.10;;;;;;5162866;28;20050;-76
2021/01/14 05:20:46;;;;;;;18.08;16.77;;;0.90;85.30;;;;;;5160559;28;20051;-77
2021/01/14 05:23:21;;;;;;;18.17;16.90;;;0.90;85.20;;;;;;5160085;28;20108;-76
2021/01/14 05:25:53;;;;;;;17.77;16.58;;;0.90;85.00;;;;;;5159525;28;20042;-75
2021/01/14 05:28:26;;;;;;;17.90;16.65;;;0.90;85.20;;;;;;5163652;28;20628;-75
2021/01/14 05:31:14;;;;;;;17.60;16.40;;;0.80;85.00;;;;;;5159572;28;20046;-76
2021/01/14 05:33:58;;;;;;;17.40;16.20;;;0.90;85.00;;;;;;5161707;28;20049;-77
2021/01/14 05:36:53;;;;;;;17.45;16.25;;;0.90;84.60;;;;;;5161750;28;20061;-76
2021/01/14 05:39:24;;;;;;;17.40;16.20;;;0.80;84.50;;;;;;5166248;28;20450;-76
2021/01/14 05:41:56;;;;;;;18.25;16.95;;;0.80;84.50;;;;;;5167848;28;20046;-76
2021/01/14 05:44:36;;;;;;;18.02;16.80;;;0.80;84.50;;;;;;5167459;28;20111;-77
2021/01/14 05:47:20;;;;;;;17.50;16.30;;;0.80;84.30;;;;;;5167331;28;20076;-78
2021/01/14 05:49:58;;;;;;;17.83;16.63;;;0.80;84.40;;;;;;5168871;28;20077;-77
2021/01/14 05:52:31;;;;;;;17.80;16.60;;;0.90;84.40;;;;;;5167327;28;20208;-77
2021/01/14 05:55:07;;;;;;;17.50;16.30;;;0.80;84.00;;;;;;5167342;28;20068;-78
2021/01/14 05:57:39;;;;;;;17.38;16.17;;;0.90;84.20;;;;;;5154431;28;20062;-77
2021/01/14 06:00:13;;;;;;;17.67;16.45;;;0.90;84.10;;;;;;5163247;28;20078;-77
2021/01/14 06:02:45;;;;;;;17.08;15.77;;;0.90;83.90;;;;;;5165543;28;20053;-76
2021/01/14 06:05:32;;;;;;;17.25;16.05;;;0.90;83.90;;;;;;5164119;28;20454;-77
2021/01/14 06:08:05;;;;;;;19.13;17.63;;;1.00;83.70;;;;;;5166324;28;20034;-78
2021/01/14 06:10:38;;;;;;;17.98;16.65;;;1.00;83.60;;;;;;5142937;28;20112;-74
2021/01/14 06:13:09;;;;;;;18.30;16.90;;;1.00;83.40;;;;;;5163099;28;20038;-78
2021/01/14 06:15:41;;;;;;;19.02;17.60;;;1.00;83.30;;;;;;5161665;28;20038;-76
2021/01/14 06:18:13;;;;;;;19.80;18.40;;;1.00;83.40;;;;;;5163076;28;20098;-77
2021/01/14 06:20:52;;;;;;;18.38;16.98;;;0.90;83.60;;;;;;5163913;28;20694;-76
2021/01/14 06:23:24;;;;;;;17.83;16.52;;;0.90;83.40;;;;;;5164808;28;20120;-77
2021/01/14 06:25:57;;;;;;;20.00;18.40;;;1.00;83.30;;;;;;5162870;28;20042;-77
2021/01/14 06:28:34;;;;;;;18.08;16.77;;;1.00;83.30;;;;;;5160064;28;20528;-76
2021/01/14 06:31:10;;;;;;;17.20;16.00;;;0.90;83.30;;;;;;5164991;28;20038;-77
2021/01/14 06:33:44;;;;;;;16.98;15.77;;;0.90;83.20;;;;;;5162916;28;20049;-78
2021/01/14 06:36:20;;;;;;;17.05;15.77;;;0.80;83.30;;;;;;5164682;28;20046;-78
2021/01/14 06:39:07;;;;;;;17.10;15.90;;;0.70;83.90;;;;;;5163619;28;20115;-77
2021/01/14 06:41:41;;;;;;;16.92;15.73;;;0.70;83.90;;;;;;5162359;28;20049;-78
2021/01/14 06:44:15;;;;;;;16.25;15.05;;;0.70;83.90;;;;;;5162220;28;20046;-77
2021/01/14 06:46:50;;;;;;;16.05;14.93;;;0.60;84.50;;;;;;5161048;28;20137;-77
2021/01/14 06:49:31;;;;;;;16.83;15.63;;;0.50;84.60;;;;;;5162255;28;20129;-76
2021/01/14 06:52:09;;;;;;;16.13;15.00;;;0.60;84.50;;;;;;5143038;28;20047;-75
2021/01/14 06:54:44;;;;;;;16.88;15.68;;;0.60;84.30;;;;;;5158028;28;20136;-74
2021/01/14 06:57:16;;;;;;;16.55;15.38;;;0.70;84.30;;;;;;5164540;28;20054;-74
2021/01/14 06:59:47;;;;;;;16.75;15.55;;;0.70;84.10;;;;;;5163474;28;20056;-76
2021/01/14 07:02:36;;;;;;;17.00;15.80;;;0.70;84.00;;;;;;5163230;28;20061;-76
2021/01/14 07:05:11;;;;;;;16.73;15.52;;;0.80;83.80;;;;;;5162172;28;20093;-74
2021/01/14 07:07:54;;;;;;;17.05;15.85;;;0.80;83.90;;;;;;5161384;28;20496;-75
2021/01/14 07:10:29;;;;;;;17.08;15.85;;;0.90;83.80;;;;;;5164352;28;20520;-74
2021/01/14 07:13:04;;;;;;;16.48;15.27;;;0.90;83.60;;;;;;5138142;28;20046;-75
2021/01/14 07:15:43;;;;;;;17.13;15.68;;;0.90;83.40;;;;;;5163133;28;20132;-74
2021/01/14 07:18:23;;;;;;;16.75;15.45;;;1.00;83.20;;;;;;5163317;28;20108;-75
2021/01/14 07:21:15;;;;;;;16.48;15.27;;;0.90;83.10;;;;;;5165770;28;20096;-75
2021/01/14 07:24:09;;;;;;;17.30;16.08;;;0.90;83.20;;;;;;5161507;28;20037;-76
2021/01/14 07:26:43;;;;;;;16.90;15.70;;;1.00;83.20;;;;;;5158083;28;20733;-75
2021/01/14 07:29:16;;;;;;;17.27;15.98;;;1.00;83.20;;;;;;5160660;28;20050;-75
2021/01/14 07:31:52;;;;;;;16.50;15.30;;;1.00;82.90;;;;;;5163250;28;20054;-76
2021/01/14 07:34:33;;;;;;;17.08;15.88;;;1.00;83.30;;;;;;5146826;28;20557;-78
2021/01/14 07:37:09;;;;;;;16.35;15.15;;;0.90;83.20;;;;;;5160072;28;20056;-77
2021/01/14 07:39:49;;;;;;;16.90;15.50;;;0.90;83.30;;;;;;5166973;28;20037;-77
2021/01/14 07:42:22;;;;;;;17.33;16.03;;;1.00;83.40;;;;;;5165472;28;20042;-76
2021/01/14 07:45:02;;;;;;;18.10;16.60;;;1.00;83.40;;;;;;5160227;28;20038;-72
2021/01/14 07:47:36;;;;;;;18.38;16.83;;;1.00;83.40;;;;;;5159658;28;20070;-75
2021/01/14 07:50:24;;;;;;;18.65;17.15;;;1.00;83.40;;;;;;5159365;28;21101;-76
2021/01/14 07:52:57;;;;;;;17.48;16.23;;;1.00;83.30;;;;;;5163162;28;20036;-75
2021/01/14 07:55:36;;;;;;;17.48;16.17;;;1.00;83.30;;;;;;5164497;28;20050;-76
2021/01/14 07:58:29;;;;;;;17.20;15.95;;;1.00;83.30;;;;;;5169591;28;20351;-75
2021/01/14 08:01:06;;;;;;;16.42;15.23;;;1.00;83.10;;;;;;5159564;28;20050;-75
2021/01/14 08:03:42;;;;;;;15.95;14.70;;;1.10;83.20;;;;;;5162393;28;20038;-76
2021/01/14 08:06:27;;;;;;;15.48;14.38;;;0.90;81.80;;;;;;5160263;28;20057;-75
2021/01/14 08:09:00;;;;;;;14.98;13.93;;;0.70;79.40;;;;;;5156870;28;20335;-75
2021/01/14 08:11:36;;;;;;;15.65;14.55;;;0.50;77.70;;;;;;5160394;28;20069;-74
2021/01/14 08:14:16;;;;;;;14.73;13.63;;;0.30;78.60;;;;;;5161080;28;20711;-75
2021/01/14 08:16:54;;;;;;;14.25;13.25;;;0.20;77.90;;;;;;5158274;28;20045;-75
2021/01/14 08:19:28;;;;;;;14.63;13.52;;;0.00;78.40;;;;;;5159875;28;20046;-75
2021/01/14 08:22:02;;;;;;;14.55;13.45;;;0.00;78.70;;;;;;5159533;28;20050;-75
2021/01/14 08:24:45;;;;;;;14.82;13.73;;;0.00;78.80;;;;;;5163767;28;20038;-74
2021/01/14 08:27:21;;;;;;;15.15;13.95;;;0.00;78.70;;;;;;5158493;28;20060;-74
2021/01/14 08:29:59;;;;;;;14.80;13.63;;;-0.10;78.20;;;;;;5165162;28;20038;-77
2021/01/14 08:32:48;;;;;;;15.15;14.00;;;-0.10;78.50;;;;;;5160685;28;20057;-76
2021/01/14 08:35:31;;;;;;;15.20;14.10;;;-0.10;78.70;;;;;;5156917;28;20049;-74
2021/01/14 08:38:16;;;;;;;14.95;13.75;;;-0.10;77.90;;;;;;5145102;28;20418;-76
2021/01/14 08:40:49;;;;;;;17.00;15.60;;;-0.20;78.60;;;;;;5156728;28;20041;-75
2021/01/14 08:43:21;;;;;;;15.07;13.98;;;-0.20;78.80;;;;;;5155201;28;20050;-75
2021/01/14 08:45:56;;;;;;;13.68;12.68;;;-0.20;78.40;;;;;;5157839;28;20059;-74
2021/01/14 08:48:31;;;;;;;13.35;12.35;;;-0.30;78.80;;;;;;5160468;28;20496;-75
2021/01/14 08:51:04;;;;;;;13.40;12.50;;;-0.30;78.60;;;;;;5161625;28;20057;-74
2021/01/14 08:53:36;;;;;;;13.77;12.77;;;-0.30;78.40;;;;;;5162848;28;20069;-75
2021/01/14 08:56:15;;;;;;;13.68;12.77;;;-0.30;78.20;;;;;;5146582;28;20042;-75
2021/01/14 08:58:48;;;;;;;12.90;12.00;;;-0.20;78.10;;;;;;5161437;28;20103;-75
2021/01/14 09:01:22;;;;;;;13.15;12.25;;;-0.30;78.10;;;;;;5159966;28;20511;-74
2021/01/14 09:03:55;;;;;;;13.15;12.25;;;-0.20;77.40;;;;;;5161119;28;20070;-74
2021/01/14 09:06:34;;;;;;;13.40;12.32;;;-0.20;77.70;;;;;;5159162;28;20050;-75
2021/01/14 09:09:06;;;;;;;13.02;12.13;;;-0.20;78.00;;;;;;5161857;28;20144;-74
2021/01/14 09:11:37;;;;;;;12.93;11.93;;;-0.20;77.30;;;;;;5161131;28;20334;-75
2021/01/14 09:14:13;;;;;;;13.10;12.20;;;-0.20;77.50;;;;;;5162238;28;20289;-74
2021/01/14 09:16:48;;;;;;;13.18;12.18;;;-0.20;77.20;;;;;;5163259;28;20100;-75
2021/01/14 09:19:23;;;;;;;12.52;11.63;;;-0.20;77.20;;;;;;5163858;28;20500;-77
2021/01/14 09:21:54;;;;;;;12.48;11.57;;;-0.30;77.30;;;;;;5148099;28;20047;-74
2021/01/14 09:24:26;;;;;;;12.32;11.43;;;-0.30;77.20;;;;;;5167543;28;20072;-73
2021/01/14 09:26:57;;;;;;;13.00;12.10;;;-0.30;77.70;;;;;;5164646;28;20049;-74
2021/01/14 09:29:30;;;;;;;12.80;11.82;;;-0.30;77.00;;;;;;5150496;28;20051;-75
2021/01/14 09:32:13;;;;;;;13.48;12.48;;;-0.30;77.20;;;;;;5165550;28;20053;-75
2021/01/14 09:34:45;;;;;;;13.13;12.13;;;-0.30;77.70;;;;;;5164213;28;20038;-74
2021/01/14 09:37:20;;;;;;;13.75;12.75;;;-0.30;77.80;;;;;;5165625;28;20070;-75
2021/01/14 09:39:51;;;;;;;12.90;12.00;;;-0.30;77.00;;;;;;5163827;28;20483;-74
2021/01/14 09:42:23;;;;;;;13.15;12.25;;;-0.30;77.50;;;;;;5164799;28;20240;-74
2021/01/14 09:44:56;;;;;;;12.68;11.77;;;-0.30;77.50;;;;;;5165444;28;20144;-73
2021/01/14 09:47:27;;;;;;;13.10;12.20;;;-0.30;77.30;;;;;;5168151;28;20042;-74
2021/01/14 09:50:01;;;;;;;14.85;13.55;;;-0.20;77.40;;;;;;5171916;28;20429;-74
2021/01/14 09:52:33;;;;;;;13.20;12.30;;;-0.20;77.20;;;;;;5158529;28;20133;-74
2021/01/14 09:55:07;;;;;;;12.65;11.75;;;-0.20;76.90;;;;;;5142830;28;20074;-76
2021/01/14 09:57:45;;;;;;;12.30;11.40;;;-0.20;76.60;;;;;;5164893;28;20602;-74
2021/01/14 10:00:21;;;;;;;12.40;11.50;;;-0.20;76.20;;;;;;5164462;28;20046;-76
2021/01/14 10:03:08;;;;;;;12.55;11.65;;;-0.30;75.20;;;;;;5148656;28;20053;-77
2021/01/14 10:05:44;;;;;;;12.55;11.65;;;-0.40;76.80;;;;;;5165963;28;20207;-73
2021/01/14 10:08:21;;;;;;;12.27;11.38;;;-0.40;76.40;;;;;;5162444;28;20145;-74
2021/01/14 10:10:52;;;;;;;12.65;11.75;;;-0.40;76.50;;;;;;5166351;28;20093;-74
2021/01/14 10:13:24;;;;;;;13.27;12.38;;;-0.40;76.70;;;;;;5163355;28;20049;-74
2021/01/14 10:16:09;;;;;;;13.15;12.20;;;-0.30;77.50;;;;;;5163838;28;20145;-75
2021/01/14 10:18:40;;;;;;;12.93;12.02;;;-0.20;77.40;;;;;;5162989;28;20121;-74
2021/01/14 10:21:14;;;;;;;13.05;12.13;;;-0.10;77.20;;;;;;5162293;28;20046;-75
2021/01/14 10:23:45;;;;;;;13.32;12.43;;;-0.10;76.10;;;;;;5166729;28;20038;-75
2021/01/14 10:26:29;;;;;;;13.35;12.45;;;-0.10;76.40;;;;;;5159943;28;20574;-75
2021/01/14 10:29:05;;;;;;;13.20;12.27;;;0.00;75.90;;;;;;5160591;28;20176;-77
2021/01/14 10:31:44;;;;;;;12.50;11.60;;;0.00;75.30;;;;;;5161687;28;20270;-74
2021/01/14 10:34:16;;;;;;;12.80;11.90;;;0.00;75.30;;;;;;5161408;28;20121;-75
2021/01/14 10:36:50;;;;;;;13.38;12.30;;;0.00;75.00;;;;;;5161495;28;20042;-73
2021/01/14 10:39:21;;;;;;;13.00;12.10;;;0.00;75.50;;;;;;5142896;28;20133;-75
2021/01/14 10:41:52;;;;;;;12.88;11.98;;;0.00;74.90;;;;;;5161112;28;20108;-75
2021/01/14 10:44:24;;;;;;;12.32;11.43;;;0.10;75.80;;;;;;5160667;28;20042;-76
2021/01/14 10:46:55;;;;;;;13.75;12.75;;;0.10;75.10;;;;;;5160090;28;20106;-74
2021/01/14 10:49:29;;;;;;;13.60;12.60;;;0.10;75.10;;;;;;5164930;28;20146;-73
2021/01/14 10:52:05;;;;;;;13.63;12.68;;;0.10;74.70;;;;;;5164407;28;20125;-73
2021/01/14 10:54:36;;;;;;;13.30;12.40;;;0.00;74.80;;;;;;5164602;28;20046;-74
2021/01/14 10:57:08;;;;;;;13.02;12.05;;;0.00;75.10;;;;;;5160314;28;20144;-73
2021/01/14 10:59:39;;;;;;;12.52;11.63;;;0.10;74.40;;;;;;5163833;28;20102;-73
2021/01/14 11:02:11;;;;;;;12.25;11.35;;;0.00;74.00;;;;;;5161539;28;20530;-74
2021/01/14 11:04:53;;;;;;;12.25;11.35;;;0.00;74.60;;;;;;5162774;28;20081;-74
2021/01/14 11:07:24;;;;;;;12.48;11.57;;;0.00;74.00;;;;;;5163167;28;20458;-72
2021/01/14 11:09:56;;;;;;;13.18;12.27;;;0.00;75.10;;;;;;5162297;28;20512;-73
2021/01/14 11:12:27;;;;;;;13.20;12.20;;;0.00;73.80;;;;;;5163808;28;20312;-73
2021/01/14 11:15:03;;;;;;;11.88;10.98;;;-0.10;74.30;;;;;;5161791;28;20050;-73
2021/01/14 11:17:34;;;;;;;12.43;11.45;;;-0.10;74.60;;;;;;5163103;28;20168;-73
2021/01/14 11:20:09;;;;;;;11.88;10.98;;;-0.10;74.70;;;;;;5162892;28;20393;-73
2021/01/14 11:22:41;;;;;;;12.18;11.27;;;-0.10;75.00;;;;;;5148798;28;20045;-73
2021/01/14 11:25:13;;;;;;;11.73;10.82;;;-0.10;74.60;;;;;;5164178;28;20128;-72
2021/01/14 11:27:44;;;;;;;11.27;10.45;;;0.00;74.40;;;;;;5163756;28;20054;-73
2021/01/14 11:30:16;;;;;;;11.63;10.82;;;0.00;74.20;;;;;;5160691;28;20104;-73
2021/01/14 11:32:49;;;;;;;11.65;10.85;;;0.00;74.50;;;;;;5163676;28;20225;-74
2021/01/14 11:35:21;;;;;;;11.50;10.68;;;-0.10;74.00;;;;;;5161822;28;20053;-73
2021/01/14 11:37:52;;;;;;;11.35;10.55;;;-0.10;74.60;;;;;;5167797;28;20472;-72
2021/01/14 11:40:24;;;;;;;11.50;10.60;;;-0.10;75.30;;;;;;5161384;28;20049;-72
2021/01/14 11:42:55;;;;;;;11.60;10.70;;;0.00;75.10;;;;;;5162434;28;20089;-72
2021/01/14 11:45:27;;;;;;;11.55;10.75;;;0.00;75.00;;;;;;5163383;28;20046;-71
2021/01/14 11:47:58;;;;;;;11.98;11.07;;;0.00;73.50;;;;;;5162931;28;20474;-74
2021/01/14 11:50:29;;;;;;;11.40;10.60;;;0.00;74.50;;;;;;5164133;28;20097;-71
2021/01/14 11:53:01;;;;;;;10.98;10.18;;;0.00;74.60;;;;;;5161577;28;20050;-73
2021/01/14 11:55:33;;;;;;;12.10;11.20;;;0.00;73.30;;;;;;5165198;28;20045;-72
2021/01/14 11:58:05;;;;;;;12.27;11.38;;;0.00;74.60;;;;;;5159503;28;20050;-72
2021/01/14 12:00:36;;;;;;;11.98;11.07;;;0.20;75.00;;;;;;5168231;28;20085;-73
2021/01/14 12:03:12;;;;;;;11.88;10.98;;;0.20;74.90;;;;;;5162102;28;20066;-71
2021/01/14 12:05:43;;;;;;;11.43;10.63;;;0.30;75.00;;;;;;5160822;28;20124;-74
2021/01/14 12:08:15;;;;;;;11.95;11.05;;;0.40;74.10;;;;;;5151110;28;20054;-75
2021/01/14 12:10:47;;;;;;;11.65;10.85;;;0.40;74.40;;;;;;5158931;28;20041;-75
2021/01/14 12:13:18;;;;;;;11.70;10.80;;;0.50;74.50;;;;;;5159621;28;20132;-72
2021/01/14 12:15:50;;;;;;;11.50;10.70;;;0.50;74.10;;;;;;5159445;28;20775;-72
2021/01/14 12:18:22;;;;;;;11.18;10.38;;;0.60;73.50;;;;;;5159408;28;20751;-73
2021/01/14 12:20:53;;;;;;;11.75;10.85;;;0.60;73.50;;;;;;5157935;28;20046;-74
2021/01/14 12:23:25;;;;;;;12.00;11.10;;;0.60;74.00;;;;;;5130802;28;20045;-74
2021/01/14 12:25:56;;;;;;;11.25;10.43;;;0.60;73.80;;;;;;5160025;28;20129;-73
2021/01/14 12:28:27;;;;;;;11.70;10.80;;;0.60;73.20;;;;;;5161310;28;20103;-73
2021/01/14 12:30:59;;;;;;;11.93;11.02;;;0.60;73.50;;;;;;5164910;28;20065;-74
2021/01/14 12:33:30;;;;;;;11.88;10.98;;;0.60;71.90;;;;;;5160900;28;20144;-73
2021/01/14 12:36:02;;;;;;;13.43;12.43;;;0.60;73.10;;;;;;5156419;28;20045;-74
2021/01/14 12:38:34;;;;;;;12.35;11.45;;;0.60;73.10;;;;;;5160247;28;20049;-73
2021/01/14 12:41:05;;;;;;;12.85;11.88;;;0.60;73.20;;;;;;5163580;28;20052;-74
2021/01/14 12:43:37;;;;;;;12.20;11.30;;;0.60;72.50;;;;;;5162928;28;20040;-73
2021/01/14 12:46:08;;;;;;;12.80;11.82;;;0.60;73.00;;;;;;5162625;28;20891;-74
2021/01/14 12:48:40;;;;;;;13.00;12.00;;;0.60;73.50;;;;;;5148710;28;20046;-72
2021/01/14 12:51:19;;;;;;;13.70;12.52;;;0.60;73.00;;;;;;5159828;28;20050;-72
2021/01/14 12:53:50;;;;;;;12.52;11.52;;;0.60;73.50;;;;;;5161281;28;20141;-73
2021/01/14 12:56:22;;;;;;;13.32;12.32;;;0.60;73.50;;;;;;5159897;28;20042;-75
2021/01/14 12:58:53;;;;;;;12.93;11.88;;;0.70;73.40;;;;;;5160601;28;20506;-75
2021/01/14 13:01:35;;;;;;;13.68;12.57;;;0.70;73.30;;;;;;5157582;28;20124;-74
2021/01/14 13:04:09;;;;;;;12.45;11.55;;;0.80;73.30;;;;;;5160997;28;20613;-75
2021/01/14 13:06:40;;;;;;;13.10;12.13;;;0.80;73.30;;;;;;5159644;28;20141;-75
2021/01/14 13:09:12;;;;;;;13.57;12.57;;;0.80;72.80;;;;;;5161540;28;20038;-74
2021/01/14 13:11:44;;;;;;;13.18;12.18;;;0.80;72.80;;;;;;5161844;28;20426;-76
2021/01/14 13:14:15;;;;;;;12.95;11.98;;;0.80;72.90;;;;;;5164168;28;20646;-75